北京 の空港の天気 - METARとTAF

北京首都国際空港 ( ZBAA / PEK ) - 中国 北京市
飛行場実況気象(Metar)
観測時間12/14 14:00 CST (12/14 06:00 UTC)
風向・風速不定 1m/s
視程10km以上
天気現象
なし
気温2℃
湿度23%
気圧1035hPa
METARZBAA 140600Z VRB01MPS CAVOK 02/M17 Q1035 NOSIG
過去の天気等 Google飛行場航空写真 Wunderground天気予報

過去48時間のMETAR

飛行場予報(TAF)
発表時間: 12/14 11:20 CST (12/14 03:20 UTC)
予報対象時間: 14日14時 CST ~ 15日14時 CST
風向・風速南 4m/s
視程6000m
なし
TAF ZBAA 140320Z 1406/1506 18004MPS 6000 NSC TX04/1407Z TNM08/21Z